createdAt,value
2022-11-20T00:01:34.425Z,94.48
2022-11-20T00:04:03.020Z,94.20
2022-11-20T00:06:32.576Z,95.12
2022-11-20T00:09:02.799Z,94.39
2022-11-20T00:11:32.973Z,94.84
2022-11-20T00:14:03.023Z,95.59
2022-11-20T00:16:34.960Z,94.82
2022-11-20T00:19:02.991Z,94.86
2022-11-20T00:21:33.998Z,94.49
2022-11-20T00:24:01.761Z,95.04
2022-11-20T00:26:33.648Z,94.22
2022-11-20T00:29:02.985Z,94.94
2022-11-20T00:31:31.935Z,96.28
2022-11-20T00:33:59.821Z,94.73
2022-11-20T00:36:29.813Z,96.14
2022-11-20T00:38:59.450Z,97.04
2022-11-20T00:41:29.003Z,96.85
2022-11-20T00:44:00.023Z,97.95
2022-11-20T00:46:29.015Z,97.05
2022-11-20T00:48:57.568Z,96.63
2022-11-20T00:51:26.947Z,97.69
2022-11-20T00:53:59.418Z,97.50
2022-11-20T00:56:27.900Z,97.48
2022-11-20T00:58:55.965Z,98.08
2022-11-20T01:01:27.304Z,98.07
2022-11-20T01:03:59.291Z,97.26
2022-11-20T01:06:30.033Z,97.17
2022-11-20T01:09:01.323Z,97.47
2022-11-20T01:11:31.723Z,96.28
2022-11-20T01:14:01.949Z,97.77
2022-11-20T01:16:36.466Z,96.32
2022-11-20T01:19:08.561Z,95.95
2022-11-20T01:21:40.144Z,97.47
2022-11-20T01:24:19.883Z,96.79
2022-11-20T01:26:50.173Z,97.12
2022-11-20T01:29:24.605Z,96.84
2022-11-20T01:31:53.906Z,97.20
2022-11-20T01:34:23.774Z,97.45
2022-11-20T01:36:52.997Z,96.94
2022-11-20T01:39:23.680Z,97.93
2022-11-20T01:42:12.626Z,97.11
2022-11-20T01:45:01.229Z,96.75
2022-11-20T01:47:47.760Z,97.46
2022-11-20T01:50:27.751Z,97.67
2022-11-20T01:53:06.452Z,98.76
2022-11-20T01:55:41.894Z,98.34
2022-11-20T01:58:10.310Z,96.87
2022-11-20T02:00:38.018Z,96.83
2022-11-20T02:03:10.787Z,96.86
2022-11-20T02:05:50.566Z,96.68
2022-11-20T02:08:19.559Z,97.85
2022-11-20T02:10:47.569Z,96.17
2022-11-20T02:13:34.529Z,96.67
2022-11-20T02:16:04.225Z,94.52
2022-11-20T02:18:34.999Z,96.76
2022-11-20T02:21:31.106Z,96.10
2022-11-20T02:24:01.919Z,96.57
2022-11-20T02:26:32.812Z,96.38
2022-11-20T02:29:04.533Z,98.03
2022-11-20T02:31:41.999Z,95.46
2022-11-20T02:34:09.754Z,94.89
2022-11-20T02:36:40.956Z,95.66
2022-11-20T02:39:11.104Z,96.16
2022-11-20T02:41:39.627Z,97.01
2022-11-20T02:44:07.590Z,96.12
2022-11-20T02:46:35.637Z,97.69
2022-11-20T02:49:05.065Z,95.76
2022-11-20T02:51:33.766Z,95.93
2022-11-20T02:54:01.640Z,94.64
2022-11-20T02:56:32.993Z,94.36
2022-11-20T02:59:00.761Z,96.27
2022-11-20T03:01:32.245Z,97.04
2022-11-20T03:04:00.488Z,95.51
2022-11-20T03:06:28.528Z,97.26
2022-11-20T03:08:56.419Z,95.86
2022-11-20T03:11:24.548Z,95.96
2022-11-20T03:13:52.529Z,96.55
2022-11-20T03:16:23.180Z,96.65
2022-11-20T03:18:53.939Z,97.08
2022-11-20T03:21:21.692Z,97.21
2022-11-20T03:23:49.602Z,94.65
2022-11-20T03:26:23.146Z,95.42
2022-11-20T03:29:02.306Z,95.17
2022-11-20T03:31:33.600Z,95.91
2022-11-20T03:34:05.221Z,97.53
2022-11-20T03:36:33.940Z,95.41
2022-11-20T03:39:05.079Z,97.22
2022-11-20T03:41:39.013Z,95.37
2022-11-20T03:44:08.845Z,97.51
2022-11-20T03:46:37.142Z,96.64
2022-11-20T03:49:05.247Z,94.63
2022-11-20T03:51:35.334Z,96.17
2022-11-20T03:54:07.255Z,95.99
2022-11-20T03:56:38.997Z,94.90
2022-11-20T03:59:12.302Z,97.62
2022-11-20T04:01:40.772Z,93.78
2022-11-20T04:04:10.391Z,95.47
2022-11-20T04:06:39.460Z,95.52
2022-11-20T04:09:07.684Z,96.95
2022-11-20T04:11:38.371Z,96.72
2022-11-20T04:14:07.688Z,95.90
2022-11-20T04:16:37.382Z,93.07
2022-11-20T04:19:07.995Z,95.16
2022-11-20T04:21:36.477Z,95.36
2022-11-20T04:24:04.679Z,94.23
2022-11-20T04:26:33.122Z,97.26
2022-11-20T04:29:03.152Z,94.72
2022-11-20T04:31:34.910Z,97.91
2022-11-20T04:34:05.143Z,94.15
2022-11-20T04:36:33.784Z,95.07
2022-11-20T04:39:05.937Z,96.00
2022-11-20T04:41:36.990Z,96.22
2022-11-20T04:44:07.079Z,95.68
2022-11-20T04:46:43.034Z,96.75
2022-11-20T04:49:12.940Z,98.22
2022-11-20T04:51:41.195Z,96.81
2022-11-20T04:54:10.783Z,96.31
2022-11-20T04:56:41.497Z,96.46
2022-11-20T04:59:09.718Z,97.54
2022-11-20T05:01:37.772Z,97.50
2022-11-20T05:04:09.281Z,95.57
2022-11-20T05:06:37.390Z,95.84
2022-11-20T05:09:05.274Z,96.09
2022-11-20T05:11:33.861Z,96.92
2022-11-20T05:14:02.051Z,95.53
2022-11-20T05:16:35.863Z,96.19
2022-11-20T05:19:04.036Z,97.46
2022-11-20T05:21:33.574Z,97.70
2022-11-20T05:24:01.367Z,95.69
2022-11-20T05:26:29.532Z,98.66
2022-11-20T05:28:57.364Z,95.37
2022-11-20T05:31:27.981Z,95.69
2022-11-20T05:33:58.524Z,96.58
2022-11-20T05:36:26.384Z,98.56
2022-11-20T05:38:59.811Z,97.89
2022-11-20T05:41:30.191Z,96.91
2022-11-20T05:44:00.190Z,94.35
2022-11-20T05:46:29.440Z,94.74
2022-11-20T05:49:00.817Z,96.23
2022-11-20T05:51:29.108Z,96.00
2022-11-20T05:54:03.239Z,98.24
2022-11-20T05:56:34.592Z,97.58
2022-11-20T05:59:02.392Z,95.46
2022-11-20T06:01:30.138Z,95.03
2022-11-20T06:04:01.401Z,98.86
2022-11-20T06:06:29.552Z,94.82
2022-11-20T06:08:57.581Z,95.18
2022-11-20T06:11:26.351Z,95.72
2022-11-20T06:13:57.127Z,95.94
2022-11-20T06:16:25.478Z,96.48
2022-11-20T06:18:53.318Z,94.77
2022-11-20T06:21:23.788Z,94.87
2022-11-20T06:23:53.702Z,95.77
2022-11-20T06:26:24.356Z,96.16
2022-11-20T06:28:53.528Z,95.22
2022-11-20T06:31:24.533Z,95.66
2022-11-20T06:33:56.380Z,95.71
2022-11-20T06:36:24.549Z,95.12
2022-11-20T06:38:52.680Z,95.83
2022-11-20T06:41:22.613Z,95.63
2022-11-20T06:43:51.326Z,95.75
2022-11-20T06:46:20.853Z,95.61
2022-11-20T06:48:49.763Z,95.43
2022-11-20T06:51:20.813Z,95.88
2022-11-20T06:53:49.853Z,95.44
2022-11-20T06:56:17.725Z,95.80
2022-11-20T06:58:45.696Z,95.91
2022-11-20T07:01:15.913Z,95.85
2022-11-20T07:03:44.389Z,96.48
2022-11-20T07:06:12.394Z,95.74
2022-11-20T07:08:40.795Z,95.13
2022-11-20T07:11:09.694Z,94.94
2022-11-20T07:13:37.491Z,95.09
2022-11-20T07:16:08.742Z,94.02
2022-11-20T07:18:39.611Z,93.85
2022-11-20T07:21:10.202Z,94.24
2022-11-20T07:23:40.638Z,94.57
2022-11-20T07:26:11.060Z,93.97
2022-11-20T07:28:39.069Z,93.43
2022-11-20T07:31:13.441Z,93.16
2022-11-20T07:33:46.056Z,93.04
2022-11-20T07:36:13.944Z,92.51
2022-11-20T07:38:41.788Z,92.87
2022-11-20T07:41:09.911Z,92.13
2022-11-20T07:43:41.282Z,90.87
2022-11-20T07:46:10.240Z,92.20
2022-11-20T07:48:38.045Z,92.54
2022-11-20T07:51:06.126Z,90.78
2022-11-20T07:53:34.363Z,91.96
2022-11-20T07:56:03.709Z,93.03
2022-11-20T07:58:31.710Z,91.65
2022-11-20T08:01:09.658Z,92.41
2022-11-20T08:03:41.125Z,92.54
2022-11-20T08:06:12.123Z,92.51
2022-11-20T08:08:43.004Z,92.54
2022-11-20T08:11:29.989Z,91.69
2022-11-20T08:14:13.291Z,89.13
2022-11-20T08:16:46.793Z,89.35
2022-11-20T08:19:16.657Z,90.38
2022-11-20T08:21:47.680Z,89.27
2022-11-20T08:24:15.763Z,89.53
2022-11-20T08:26:43.428Z,91.43
2022-11-20T08:29:11.050Z,90.22
2022-11-20T08:31:39.288Z,90.25
2022-11-20T08:34:09.469Z,90.66
2022-11-20T08:36:40.603Z,90.90
2022-11-20T08:39:08.810Z,88.01
2022-11-20T08:41:39.896Z,90.74
2022-11-20T08:44:09.385Z,90.36
2022-11-20T08:46:40.556Z,91.84
2022-11-20T08:49:10.828Z,93.30
2022-11-20T08:51:42.609Z,91.29
2022-11-20T08:54:10.889Z,92.69
2022-11-20T08:56:41.850Z,90.98
2022-11-20T08:59:50.906Z,89.86
2022-11-20T09:02:00.848Z,90.79
2022-11-20T09:04:30.517Z,90.74
2022-11-20T09:06:58.264Z,91.75
2022-11-20T09:09:26.222Z,92.00
2022-11-20T09:11:54.475Z,92.18
2022-11-20T09:14:22.699Z,90.20
2022-11-20T09:16:50.419Z,91.58
2022-11-20T09:19:40.906Z,92.50
2022-11-20T09:22:06.346Z,92.27
2022-11-20T09:24:34.614Z,91.13
2022-11-20T09:27:08.729Z,91.28
2022-11-20T09:29:36.878Z,92.22
2022-11-20T09:32:04.947Z,91.36
2022-11-20T09:34:32.860Z,91.54
2022-11-20T09:37:04.526Z,90.75
2022-11-20T09:39:35.086Z,91.43
2022-11-20T09:42:24.618Z,91.16
2022-11-20T09:45:30.685Z,89.80
2022-11-20T09:48:22.499Z,90.72
2022-11-20T09:51:15.364Z,89.92
2022-11-20T09:54:04.846Z,89.04
2022-11-20T09:56:38.485Z,90.43
2022-11-20T09:59:09.307Z,91.04
2022-11-20T10:01:39.829Z,89.31
2022-11-20T10:04:17.412Z,90.18
2022-11-20T10:07:30.935Z,92.20
2022-11-20T10:09:57.738Z,92.14
2022-11-20T10:12:25.530Z,91.18
2022-11-20T10:15:22.850Z,91.39
2022-11-20T10:18:09.186Z,91.12
2022-11-20T10:20:56.054Z,92.29
2022-11-20T10:23:37.423Z,90.01
2022-11-20T10:26:39.539Z,91.33
2022-11-20T10:29:28.840Z,90.40
2022-11-20T10:32:03.684Z,91.06
2022-11-20T10:34:56.369Z,91.08
2022-11-20T10:37:27.057Z,92.42
2022-11-20T10:40:19.098Z,91.55
2022-11-20T10:42:56.259Z,90.53
2022-11-20T10:45:28.194Z,91.09
2022-11-20T10:48:09.434Z,91.30
2022-11-20T10:51:09.275Z,89.09
2022-11-20T10:53:53.891Z,88.92
2022-11-20T10:56:50.099Z,90.72
2022-11-20T10:59:47.782Z,91.74
2022-11-20T11:02:32.687Z,90.49
2022-11-20T11:05:27.179Z,89.07
2022-11-20T11:07:57.256Z,89.78
2022-11-20T11:10:54.021Z,88.36
2022-11-20T11:13:30.844Z,88.67
2022-11-20T11:15:59.774Z,89.63
2022-11-20T11:18:31.379Z,89.48
2022-11-20T11:21:01.963Z,88.95
2022-11-20T11:23:42.911Z,89.65
2022-11-20T11:26:24.846Z,90.85
2022-11-20T11:29:04.635Z,90.45
2022-11-20T11:31:36.636Z,89.79
2022-11-20T11:34:15.493Z,89.29
2022-11-20T11:36:50.831Z,89.84
2022-11-20T11:39:21.719Z,89.87
2022-11-20T11:41:50.593Z,90.14
2022-11-20T11:44:47.687Z,91.42
2022-11-20T11:47:37.208Z,91.51
2022-11-20T11:50:14.094Z,91.76
2022-11-20T11:52:54.110Z,92.93
2022-11-20T11:55:53.592Z,92.57
2022-11-20T11:58:48.148Z,92.14
2022-11-20T12:01:30.860Z,91.66
2022-11-20T12:04:20.400Z,92.33
2022-11-20T12:07:06.100Z,92.77
2022-11-20T12:09:53.976Z,92.55
2022-11-20T12:12:31.922Z,92.64
2022-11-20T12:15:00.212Z,91.93
2022-11-20T12:17:28.005Z,91.60
2022-11-20T12:19:55.827Z,92.42
2022-11-20T12:22:31.045Z,91.80
2022-11-20T12:25:12.287Z,91.73
2022-11-20T12:27:47.551Z,92.80
2022-11-20T12:30:20.899Z,92.99
2022-11-20T12:33:22.665Z,92.16
2022-11-20T12:35:59.723Z,91.93
2022-11-20T12:39:07.404Z,92.02
2022-11-20T12:42:44.997Z,93.57
2022-11-20T12:45:24.720Z,93.89
2022-11-20T12:48:15.088Z,92.85
2022-11-20T12:51:16.044Z,93.52
2022-11-20T12:54:06.221Z,92.93
2022-11-20T12:57:03.483Z,93.05
2022-11-20T13:00:07.343Z,93.01
2022-11-20T13:03:03.118Z,93.48
2022-11-20T13:05:42.488Z,93.65
2022-11-20T13:08:23.223Z,93.37
2022-11-20T13:10:59.911Z,94.21
2022-11-20T13:13:32.852Z,93.43
2022-11-20T13:16:15.863Z,93.97
2022-11-20T13:18:46.454Z,93.82
2022-11-20T13:21:20.377Z,93.56
2022-11-20T13:23:49.058Z,94.10
2022-11-20T13:26:24.410Z,94.92
2022-11-20T13:29:13.354Z,95.24
2022-11-20T13:31:50.542Z,95.05
2022-11-20T13:34:27.527Z,93.93
2022-11-20T13:36:57.706Z,94.08
2022-11-20T13:39:39.595Z,94.25
2022-11-20T13:42:13.311Z,93.97
2022-11-20T13:44:49.117Z,94.68
2022-11-20T13:47:28.622Z,95.11
2022-11-20T13:50:00.587Z,95.78
2022-11-20T13:52:57.420Z,96.30
2022-11-20T13:55:49.969Z,96.61
2022-11-20T13:58:35.574Z,96.34
2022-11-20T14:01:21.375Z,95.26
2022-11-20T14:04:06.681Z,94.42
2022-11-20T14:06:47.309Z,94.39
2022-11-20T14:09:36.455Z,95.32
2022-11-20T14:12:15.175Z,95.87
2022-11-20T14:14:54.295Z,95.89
2022-11-20T14:17:26.678Z,96.06
2022-11-20T14:19:56.258Z,96.41
2022-11-20T14:22:28.001Z,96.66
2022-11-20T14:25:15.514Z,96.36
2022-11-20T14:27:46.124Z,96.55
2022-11-20T14:30:17.369Z,97.10
2022-11-20T14:32:47.365Z,97.33
2022-11-20T14:35:47.209Z,97.53
2022-11-20T14:38:18.612Z,97.19
2022-11-20T14:40:47.414Z,97.48
2022-11-20T14:43:27.198Z,97.52
2022-11-20T14:46:11.355Z,97.73
2022-11-20T14:48:55.187Z,97.01
2022-11-20T14:51:43.622Z,96.88
2022-11-20T14:54:18.962Z,96.84
2022-11-20T14:56:57.437Z,97.50
2022-11-20T14:59:27.239Z,97.32
2022-11-20T15:01:59.615Z,97.25
2022-11-20T15:04:31.334Z,96.59
2022-11-20T15:07:01.448Z,95.97
2022-11-20T15:09:29.677Z,96.19
2022-11-20T15:12:01.739Z,96.05
2022-11-20T15:14:33.931Z,96.33
2022-11-20T15:17:02.155Z,96.47
2022-11-20T15:19:30.597Z,96.18
2022-11-20T15:21:58.402Z,96.03
2022-11-20T15:24:26.323Z,95.30
2022-11-20T15:26:57.639Z,95.02
2022-11-20T15:29:25.840Z,94.74
2022-11-20T15:31:55.512Z,95.56
2022-11-20T15:34:23.765Z,96.09
2022-11-20T15:36:51.936Z,96.53
2022-11-20T15:39:20.178Z,96.43
2022-11-20T15:41:48.417Z,95.81
2022-11-20T15:44:16.291Z,95.45
2022-11-20T15:46:46.352Z,94.80
2022-11-20T15:49:16.939Z,94.98
2022-11-20T15:51:49.125Z,94.85
2022-11-20T15:54:23.310Z,95.38
2022-11-20T15:56:55.360Z,95.65
2022-11-20T15:59:23.298Z,96.06
2022-11-20T16:01:51.702Z,96.51
2022-11-20T16:04:20.435Z,96.30
2022-11-20T16:06:48.480Z,96.53
2022-11-20T16:09:16.427Z,96.59
2022-11-20T16:11:47.702Z,96.23
2022-11-20T16:14:33.963Z,95.32
2022-11-20T16:17:02.935Z,95.24
2022-11-20T16:19:30.841Z,95.50
2022-11-20T16:22:02.858Z,95.92
2022-11-20T16:24:31.700Z,96.61
2022-11-20T16:26:59.566Z,96.19
2022-11-20T16:29:27.454Z,96.24
2022-11-20T16:31:55.695Z,96.76
2022-11-20T16:34:23.873Z,96.71
2022-11-20T16:36:54.929Z,96.58
2022-11-20T16:39:24.125Z,96.74
2022-11-20T16:41:51.993Z,96.26
2022-11-20T16:44:19.811Z,96.57
2022-11-20T16:46:48.225Z,96.89
2022-11-20T16:49:16.254Z,97.42
2022-11-20T16:51:44.263Z,97.17
2022-11-20T16:54:16.450Z,97.02
2022-11-20T16:56:48.579Z,97.10
2022-11-20T16:59:16.864Z,95.85
2022-11-20T17:01:44.801Z,95.36
2022-11-20T17:04:12.750Z,95.21
2022-11-20T17:06:44.562Z,95.50
2022-11-20T17:09:15.605Z,95.58
2022-11-20T17:11:49.074Z,94.97
2022-11-20T17:14:17.006Z,94.77
2022-11-20T17:16:48.112Z,94.93
2022-11-20T17:19:16.192Z,95.19
2022-11-20T17:21:47.231Z,95.53
2022-11-20T17:24:16.553Z,95.45
2022-11-20T17:26:45.665Z,95.34
2022-11-20T17:29:18.415Z,95.65
2022-11-20T17:31:50.167Z,95.96
2022-11-20T17:34:18.241Z,95.70
2022-11-20T17:36:46.842Z,95.96
2022-11-20T17:39:15.947Z,95.77
2022-11-20T17:41:43.957Z,95.63
2022-11-20T17:44:13.454Z,96.22
2022-11-20T17:46:41.593Z,96.28
2022-11-20T17:49:09.411Z,96.39
2022-11-20T17:51:37.690Z,96.55
2022-11-20T17:54:07.897Z,96.69
2022-11-20T17:56:55.180Z,95.86
2022-11-20T17:59:23.475Z,96.19
2022-11-20T18:01:51.404Z,96.81
2022-11-20T18:04:19.635Z,96.44
2022-11-20T18:06:47.499Z,96.43
2022-11-20T18:09:15.534Z,96.22
2022-11-20T18:11:44.323Z,96.45
2022-11-20T18:14:34.979Z,96.41
2022-11-20T18:17:08.754Z,96.64
2022-11-20T18:20:07.140Z,96.55
2022-11-20T18:22:37.237Z,96.59
2022-11-20T18:25:05.568Z,96.56
2022-11-20T18:27:33.468Z,96.96
2022-11-20T18:30:01.744Z,96.21
2022-11-20T18:32:31.406Z,95.97
2022-11-20T18:34:59.247Z,96.11
2022-11-20T18:37:28.297Z,95.80
2022-11-20T18:39:57.322Z,95.99
2022-11-20T18:42:43.502Z,96.08
2022-11-20T18:45:11.751Z,95.54
2022-11-20T18:47:40.452Z,96.25
2022-11-20T18:50:09.621Z,95.73
2022-11-20T18:52:44.934Z,95.62
2022-11-20T18:55:13.200Z,95.20
2022-11-20T18:57:41.649Z,95.24
2022-11-20T19:00:13.216Z,95.00
2022-11-20T19:02:43.184Z,95.20
2022-11-20T19:05:13.170Z,95.73
2022-11-20T19:07:41.640Z,95.34
2022-11-20T19:10:09.897Z,96.12
2022-11-20T19:12:38.029Z,95.07
2022-11-20T19:15:07.011Z,94.78
2022-11-20T19:17:34.779Z,94.80
2022-11-20T19:20:02.511Z,94.97
2022-11-20T19:22:31.498Z,94.82
2022-11-20T19:24:59.298Z,95.18
2022-11-20T19:27:27.100Z,95.74
2022-11-20T19:29:59.082Z,94.62
2022-11-20T19:32:27.968Z,94.54
2022-11-20T19:34:56.061Z,94.94
2022-11-20T19:37:25.585Z,94.71
2022-11-20T19:39:53.380Z,95.31
2022-11-20T19:42:21.497Z,94.74
2022-11-20T19:44:49.395Z,94.77
2022-11-20T19:47:17.176Z,96.45
2022-11-20T19:49:45.239Z,94.63
2022-11-20T19:52:13.129Z,94.27
2022-11-20T19:54:41.006Z,94.72
2022-11-20T19:57:09.103Z,94.63
2022-11-20T19:59:36.895Z,95.44
2022-11-20T20:02:04.867Z,96.09
2022-11-20T20:04:33.266Z,95.08
2022-11-20T20:07:04.110Z,94.58
2022-11-20T20:09:32.060Z,94.70
2022-11-20T20:12:00.385Z,94.70
2022-11-20T20:14:28.280Z,95.00
2022-11-20T20:16:56.147Z,94.63
2022-11-20T20:19:24.451Z,94.88
2022-11-20T20:21:52.629Z,94.71
2022-11-20T20:24:20.491Z,94.80
2022-11-20T20:26:48.688Z,94.93
2022-11-20T20:29:23.638Z,95.21
2022-11-20T20:31:54.632Z,95.54
2022-11-20T20:34:29.871Z,97.43
2022-11-20T20:37:01.255Z,94.47
2022-11-20T20:39:29.565Z,94.42
2022-11-20T20:42:00.300Z,94.91
2022-11-20T20:44:46.897Z,94.78
2022-11-20T20:47:14.659Z,95.12
2022-11-20T20:49:43.606Z,95.28
2022-11-20T20:52:11.404Z,96.05
2022-11-20T20:54:41.698Z,96.92
2022-11-20T20:57:09.849Z,97.13
2022-11-20T20:59:37.623Z,96.98
2022-11-20T21:02:09.520Z,97.28
2022-11-20T21:04:37.794Z,97.11
2022-11-20T21:07:05.839Z,96.87
2022-11-20T21:09:33.574Z,97.33
2022-11-20T21:12:05.687Z,96.76
2022-11-20T21:14:33.658Z,96.20
2022-11-20T21:17:02.534Z,96.11
2022-11-20T21:19:30.314Z,99.04
2022-11-20T21:22:00.815Z,98.97
2022-11-20T21:24:36.703Z,96.35
2022-11-20T21:27:07.462Z,94.49
2022-11-20T21:29:35.743Z,94.93
2022-11-20T21:32:03.763Z,95.28
2022-11-20T21:34:32.113Z,95.15
2022-11-20T21:37:00.468Z,94.41
2022-11-20T21:39:30.589Z,94.77
2022-11-20T21:41:58.492Z,95.37
2022-11-20T21:44:31.380Z,94.96
2022-11-20T21:47:00.471Z,94.93
2022-11-20T21:49:28.737Z,94.77
2022-11-20T21:51:59.876Z,96.33
2022-11-20T21:54:28.149Z,94.01
2022-11-20T21:56:55.900Z,93.98
2022-11-20T21:59:24.186Z,94.25
2022-11-20T22:01:52.401Z,97.78
2022-11-20T22:04:21.728Z,93.81
2022-11-20T22:06:52.628Z,95.88
2022-11-20T22:09:20.929Z,94.54
2022-11-20T22:11:48.600Z,94.46
2022-11-20T22:14:22.427Z,96.70
2022-11-20T22:16:53.090Z,96.23
2022-11-20T22:19:22.263Z,94.33
2022-11-20T22:21:53.487Z,97.40
2022-11-20T22:24:22.992Z,93.41
2022-11-20T22:26:51.066Z,93.98
2022-11-20T22:29:23.663Z,99.64
2022-11-20T22:31:54.955Z,100.00
2022-11-20T22:34:26.201Z,97.33
2022-11-20T22:36:54.621Z,97.82
2022-11-20T22:39:23.404Z,93.97
2022-11-20T22:41:51.434Z,100.00
2022-11-20T22:44:19.699Z,100.00
2022-11-20T22:46:50.356Z,100.00
2022-11-20T22:49:18.128Z,100.00
2022-11-20T22:51:46.353Z,98.04
2022-11-20T22:54:14.231Z,96.38
2022-11-20T22:56:42.324Z,94.60
2022-11-20T22:59:10.645Z,100.00
2022-11-20T23:01:38.732Z,97.27
2022-11-20T23:04:11.921Z,96.38
2022-11-20T23:06:40.288Z,94.87
2022-11-20T23:09:13.093Z,100.00
2022-11-20T23:11:41.269Z,96.15
2022-11-20T23:14:15.538Z,100.00
2022-11-20T23:16:44.030Z,95.85
2022-11-20T23:19:16.758Z,95.31
2022-11-20T23:21:45.272Z,97.64
2022-11-20T23:24:13.124Z,96.00
2022-11-20T23:26:41.734Z,97.30
2022-11-20T23:29:10.001Z,96.43
2022-11-20T23:31:37.917Z,95.65
2022-11-20T23:34:06.263Z,95.69
2022-11-20T23:36:34.447Z,95.86
2022-11-20T23:39:02.416Z,96.22
2022-11-20T23:41:30.086Z,95.94
2022-11-20T23:43:58.168Z,95.74
2022-11-20T23:46:25.971Z,95.58
2022-11-20T23:48:56.202Z,96.47
2022-11-20T23:51:24.283Z,96.40
2022-11-20T23:53:52.513Z,98.48
2022-11-20T23:56:23.327Z,95.90
2022-11-20T23:58:51.478Z,95.98
